Time;durP1;ratioP1;P1;durP2;ratioP2;P2;SDS_P1;SDS_P2;PMS_P1;PMS_P2;Temp;Humidity;BMP_temperature;BMP_pressure;BME280_temperature;BME280_humidity;BME280_pressure;Samples;Min_cycle;Max_cycle;Signal;HPM_P1;HPM_P2
2023/10/17 00:00:18;;;;;;;0.80;0.80;;;8.80;99.90;;;8.95;67.62;100875.97;5011896;28;20699;-65
2023/10/17 00:02:45;;;;;;;0.70;0.70;;;8.80;99.90;;;8.95;67.27;100875.97;5009466;28;20715;-66
2023/10/17 00:05:14;;;;;;;0.90;0.90;;;8.80;99.90;;;8.96;66.36;100874.22;5010472;28;20701;-66
2023/10/17 00:07:48;;;;;;;1.23;1.00;;;8.90;99.90;;;8.91;66.37;100876.25;5008035;28;21182;-65
2023/10/17 00:10:18;;;;;;;1.00;1.00;;;8.80;99.90;;;8.89;66.39;100868.53;4967876;28;20725;-66
2023/10/17 00:12:52;;;;;;;0.73;0.73;;;8.80;99.90;;;8.88;66.69;100872.06;5022258;28;20623;-65
2023/10/17 00:15:29;;;;;;;0.83;0.83;;;8.80;99.90;;;8.86;66.82;100873.91;5008707;28;20694;-65
2023/10/17 00:18:03;;;;;;;0.77;0.77;;;8.70;99.90;;;8.87;66.52;100870.41;5009042;28;20660;-66
2023/10/17 00:20:37;;;;;;;0.80;0.80;;;8.70;99.90;;;8.86;66.79;100873.91;5011363;28;20617;-66
2023/10/17 00:23:06;;;;;;;1.10;1.10;;;8.70;99.90;;;8.87;66.76;100872.16;5009098;28;21094;-65
2023/10/17 00:25:35;;;;;;;0.90;0.90;;;8.70;99.90;;;8.86;67.47;100879.13;5004557;28;20648;-66
2023/10/17 00:28:02;;;;;;;0.97;0.97;;;8.70;99.90;;;8.84;66.93;100874.97;5005239;28;20657;-66
2023/10/17 00:30:30;;;;;;;1.00;0.87;;;8.70;99.90;;;8.82;67.73;100877.63;4992414;28;20629;-66
2023/10/17 00:32:58;;;;;;;0.90;0.90;;;8.70;99.90;;;8.80;67.32;100869.09;5008416;28;20732;-64
2023/10/17 00:35:26;;;;;;;8.03;0.90;;;8.70;99.90;;;8.79;67.53;100866.59;5000676;28;20646;-65
2023/10/17 00:37:56;;;;;;;1.23;1.10;;;8.70;99.90;;;8.82;67.41;100869.84;5009532;28;20629;-65
2023/10/17 00:40:34;;;;;;;1.53;1.30;;;8.70;99.90;;;8.81;67.52;100867.34;5008615;28;20660;-65
2023/10/17 00:43:04;;;;;;;1.53;1.40;;;8.70;99.90;;;8.80;67.73;100871.69;5011195;28;20617;-66
2023/10/17 00:45:35;;;;;;;2.80;1.47;;;8.70;99.90;;;8.80;67.49;100866.50;5008729;28;20740;-65
2023/10/17 00:48:08;;;;;;;1.40;1.30;;;8.70;99.90;;;8.80;67.45;100861.28;5007934;28;20733;-65
2023/10/17 00:50:37;;;;;;;1.33;1.23;;;8.70;99.90;;;8.76;67.92;100857.19;5008992;28;20637;-65
2023/10/17 00:53:08;;;;;;;1.83;1.50;;;8.70;99.90;;;8.74;67.93;100850.41;5008690;28;20637;-65
2023/10/17 00:55:36;;;;;;;1.50;1.37;;;8.70;99.90;;;8.74;68.13;100848.66;5008680;28;20753;-65
2023/10/17 00:58:06;;;;;;;1.77;1.70;;;8.60;99.90;;;8.73;68.22;100848.75;5001605;28;20661;-63
2023/10/17 01:00:36;;;;;;;1.80;1.70;;;8.60;99.90;;;8.72;68.09;100850.50;5005874;28;23014;-65
2023/10/17 01:03:10;;;;;;;1.63;1.53;;;8.60;99.90;;;8.68;68.29;100841.22;5006082;28;21005;-65
2023/10/17 01:06:00;;;;;;;1.27;1.27;;;8.60;99.90;;;8.67;68.44;100841.34;4998814;28;20646;-64
2023/10/17 01:08:36;;;;;;;1.50;1.50;;;8.60;99.90;;;8.67;68.29;100846.53;5005291;28;20705;-65
2023/10/17 01:11:08;;;;;;;1.70;1.60;;;8.60;99.90;;;8.64;68.72;100846.69;5006839;28;20672;-65
2023/10/17 01:13:39;;;;;;;1.30;1.20;;;8.50;99.90;;;8.64;68.80;100850.16;5007900;28;20726;-66
2023/10/17 01:16:08;;;;;;;2.47;1.40;;;8.50;99.90;;;8.63;68.84;100847.63;5008567;28;20743;-66
2023/10/17 01:18:35;;;;;;;1.50;1.33;;;8.50;99.90;;;8.63;68.81;100845.03;5006669;28;20653;-65
2023/10/17 01:21:03;;;;;;;1.30;1.30;;;8.50;99.90;;;8.61;69.08;100850.31;5010199;28;20667;-64
2023/10/17 01:23:31;;;;;;;1.20;1.20;;;8.50;99.90;;;8.58;69.01;100845.31;5004773;28;20748;-64
2023/10/17 01:26:04;;;;;;;1.87;1.70;;;8.50;99.90;;;8.57;69.20;100848.84;5008629;28;20732;-65
2023/10/17 01:28:31;;;;;;;1.50;1.40;;;8.50;99.90;;;8.54;69.88;100851.59;5009376;28;21034;-66
2023/10/17 01:31:01;;;;;;;1.83;1.73;;;8.50;99.90;;;8.54;69.25;100849.84;5010242;28;21305;-65
2023/10/17 01:33:29;;;;;;;1.73;1.63;;;8.40;99.90;;;8.49;70.15;100841.50;5009137;28;21233;-64
2023/10/17 01:35:58;;;;;;;1.97;1.60;;;8.40;99.90;;;8.49;69.34;100840.66;5010199;28;20672;-65
2023/10/17 01:38:26;;;;;;;1.83;1.73;;;8.40;99.90;;;8.49;69.74;100840.66;5010303;28;20656;-66
2023/10/17 01:40:55;;;;;;;1.90;1.80;;;8.40;99.90;;;8.48;69.81;100841.59;5006527;28;20633;-65
2023/10/17 01:43:22;;;;;;;1.20;1.10;;;8.40;99.90;;;8.49;70.11;100838.06;4991551;28;20629;-65
2023/10/17 01:45:50;;;;;;;0.97;0.97;;;8.40;99.90;;;8.49;70.01;100832.88;5008504;28;21092;-65
2023/10/17 01:48:21;;;;;;;1.60;1.50;;;8.40;99.90;;;8.49;68.98;100833.72;5007525;28;20658;-66
2023/10/17 01:50:48;;;;;;;1.00;1.00;;;8.40;99.90;;;8.47;69.28;100837.31;5009661;28;20728;-66
2023/10/17 01:53:15;;;;;;;1.40;1.40;;;8.40;99.90;;;8.47;68.73;100834.72;5009759;28;20638;-65
2023/10/17 01:55:45;;;;;;;1.23;1.13;;;8.40;99.90;;;8.47;68.42;100834.72;5011478;28;20676;-65
2023/10/17 01:58:15;;;;;;;5.50;1.47;;;8.40;99.90;;;8.42;68.60;100832.41;5006230;28;20657;-67
2023/10/17 02:00:42;;;;;;;1.23;1.13;;;8.30;99.90;;;8.41;68.88;100833.31;5002998;28;20699;-66
2023/10/17 02:03:12;;;;;;;1.80;1.70;;;8.30;99.90;;;8.36;69.45;100830.16;5008602;28;20625;-66
2023/10/17 02:05:40;;;;;;;2.90;2.07;;;8.30;99.90;;;8.35;70.24;100835.44;5004369;28;20648;-65
2023/10/17 02:08:08;;;;;;;1.80;1.70;;;8.30;99.90;;;8.33;70.26;100832.94;5012978;28;20635;-65
2023/10/17 02:10:36;;;;;;;2.70;1.73;;;8.20;99.90;;;8.31;70.26;100827.00;5007796;28;20629;-66
2023/10/17 02:13:04;;;;;;;1.90;1.80;;;8.20;99.90;;;8.28;70.96;100818.53;5007597;28;20633;-65
2023/10/17 02:15:31;;;;;;;1.50;1.40;;;8.20;99.90;;;8.25;71.89;100842.09;5010607;28;20712;-65
2023/10/17 02:18:00;;;;;;;1.83;1.47;;;8.20;99.90;;;8.21;71.66;100828.44;5012994;28;20657;-65
2023/10/17 02:22:57;;;;;;;2.70;1.80;;;8.10;99.90;;;8.16;72.71;100834.81;5014000;28;20712;-65
2023/10/17 02:25:32;;;;;;;4.60;1.63;;;8.10;99.90;;;8.12;73.16;100836.75;4995728;28;20641;-66
2023/10/17 02:27:59;;;;;;;4.00;2.30;;;8.10;99.90;;;8.07;73.49;100835.38;5010801;28;20613;-66
2023/10/17 02:30:27;;;;;;;2.83;2.13;;;8.00;99.90;;;8.07;73.90;100840.56;5005812;28;20666;-66
2023/10/17 02:32:54;;;;;;;3.10;1.77;;;8.00;99.90;;;8.02;73.45;100840.00;5010281;28;20641;-65
2023/10/17 02:35:30;;;;;;;2.03;1.70;;;7.90;99.90;;;8.00;74.22;100849.63;5001748;28;20677;-65
2023/10/17 02:37:57;;;;;;;2.23;1.83;;;7.90;99.90;;;7.98;74.72;100846.28;5004701;28;20734;-66
2023/10/17 02:40:25;;;;;;;1.57;1.57;;;7.90;99.90;;;7.95;74.64;100846.47;5009036;28;20644;-65
2023/10/17 02:42:52;;;;;;;1.93;1.77;;;7.90;99.90;;;7.96;74.58;100842.94;5026522;28;20617;-63
2023/10/17 02:45:24;;;;;;;2.20;2.10;;;7.90;99.90;;;7.93;75.13;100832.72;5010498;28;20633;-65
2023/10/17 02:47:57;;;;;;;1.50;1.47;;;7.80;99.90;;;7.91;74.79;100822.44;5011170;28;20633;-65
2023/10/17 02:52:58;;;;;;;1.37;1.37;;;7.80;99.90;;;7.82;74.85;100831.59;5013239;28;20653;-65
2023/10/17 02:55:25;;;;;;;7.57;1.57;;;7.80;99.90;;;7.79;75.65;100830.94;5012756;28;20629;-64
2023/10/17 02:57:53;;;;;;;2.30;1.70;;;7.70;99.90;;;7.80;75.98;100824.78;5012016;28;20747;-64
2023/10/17 03:00:22;;;;;;;2.10;1.90;;;7.80;99.90;;;7.80;75.90;100830.84;5009381;28;20633;-65
2023/10/17 03:02:55;;;;;;;1.93;1.43;;;7.70;99.90;;;7.79;75.24;100825.75;5012122;28;20997;-64
2023/10/17 03:05:24;;;;;;;1.77;1.67;;;7.70;99.90;;;7.82;75.31;100823.78;5012026;28;20633;-64
2023/10/17 03:07:52;;;;;;;1.60;1.50;;;7.70;99.90;;;7.80;76.21;100830.84;5006265;28;20672;-64
2023/10/17 03:10:36;;;;;;;1.57;1.30;;;7.70;99.90;;;7.81;75.47;100829.91;5009686;28;20672;-65
2023/10/17 03:13:43;;;;;;;1.57;1.47;;;7.70;99.90;;;7.82;75.25;100828.97;5011231;28;20625;-65
2023/10/17 03:16:14;;;;;;;1.67;1.57;;;7.70;99.90;;;7.83;75.13;100827.22;5010279;28;20639;-65
2023/10/17 03:18:41;;;;;;;2.30;1.83;;;7.70;99.90;;;7.83;74.93;100817.69;5026167;28;20686;-65
2023/10/17 03:21:08;;;;;;;3.40;2.10;;;7.70;99.90;;;7.86;75.18;100824.44;5007586;28;20695;-65
2023/10/17 03:23:35;;;;;;;1.33;1.23;;;7.80;99.90;;;7.82;74.98;100821.19;5000888;28;20664;-65
2023/10/17 03:26:02;;;;;;;1.70;1.60;;;7.80;99.90;;;7.78;75.62;100818.84;5010384;28;20633;-66
2023/10/17 03:28:34;;;;;;;2.37;1.63;;;7.70;99.90;;;7.77;76.30;100818.00;5025818;28;20657;-65
2023/10/17 03:31:10;;;;;;;1.67;1.57;;;7.70;99.90;;;7.80;75.45;100814.41;5005706;28;21509;-65
2023/10/17 03:33:46;;;;;;;1.80;1.60;;;7.70;99.90;;;7.83;75.25;100806.44;5008502;28;20629;-65
2023/10/17 03:36:40;;;;;;;1.10;1.10;;;7.70;99.90;;;7.86;76.06;100801.06;5008290;28;20664;-66
2023/10/17 03:39:27;;;;;;;4.37;1.90;;;7.70;99.90;;;7.87;75.70;100791.50;5007152;28;20661;-66
2023/10/17 03:41:58;;;;;;;1.73;1.63;;;7.80;99.90;;;7.89;75.41;100795.69;5011660;28;20632;-65
2023/10/17 03:44:30;;;;;;;2.70;1.87;;;7.80;99.90;;;7.88;76.27;100786.22;5008022;28;20637;-63
2023/10/17 03:47:04;;;;;;;1.70;1.60;;;7.80;99.90;;;7.83;76.11;100796.06;5010258;28;21170;-64
2023/10/17 03:49:37;;;;;;;1.87;1.63;;;7.70;99.90;;;7.81;75.46;100798.72;5007528;28;20664;-64
2023/10/17 03:52:05;;;;;;;2.03;1.87;;;7.70;99.90;;;7.83;76.35;100807.28;5007164;28;21044;-65
2023/10/17 03:54:38;;;;;;;1.90;1.80;;;7.70;99.90;;;7.86;75.79;100810.63;5004262;28;20668;-65
2023/10/17 03:57:14;;;;;;;1.63;1.53;;;7.80;99.90;;;7.89;76.08;100811.28;5000206;28;21261;-65
2023/10/17 03:59:52;;;;;;;1.80;1.70;;;7.80;99.90;;;7.90;75.57;100806.94;5006530;28;20641;-65
2023/10/17 04:02:20;;;;;;;1.80;1.70;;;7.80;99.90;;;7.88;76.11;100801.00;5008851;28;21243;-64
2023/10/17 04:04:53;;;;;;;1.77;1.67;;;7.80;99.90;;;7.87;75.82;100801.91;5008342;28;20719;-65
2023/10/17 04:07:23;;;;;;;1.50;1.40;;;7.80;99.90;;;7.84;75.81;100802.91;5007090;28;20641;-65
2023/10/17 04:09:54;;;;;;;1.73;1.60;;;7.80;99.90;;;7.84;76.18;100801.16;5001057;28;20676;-65
2023/10/17 04:12:23;;;;;;;2.17;1.77;;;7.80;99.90;;;7.84;76.45;100802.91;5010484;28;21186;-64
2023/10/17 04:14:54;;;;;;;1.77;1.47;;;7.70;99.90;;;7.86;75.70;100800.25;5007950;28;21053;-65
2023/10/17 04:17:24;;;;;;;1.83;1.77;;;7.80;99.90;;;7.83;76.27;100796.91;5011713;28;21254;-65
2023/10/17 04:19:58;;;;;;;2.13;1.73;;;7.80;99.90;;;7.82;77.13;100795.22;5002484;28;21308;-64
2023/10/17 04:22:32;;;;;;;3.47;2.30;;;7.80;99.90;;;7.81;77.18;100798.72;4999301;28;20687;-64
2023/10/17 04:25:00;;;;;;;1.80;1.70;;;7.70;99.90;;;7.80;76.28;100801.41;5020843;28;20994;-64
2023/10/17 04:27:31;;;;;;;1.60;1.50;;;7.70;99.90;;;7.80;76.72;100799.66;5016831;28;21290;-65
2023/10/17 04:29:59;;;;;;;1.60;1.50;;;7.70;99.90;;;7.81;77.11;100813.50;5005875;28;21340;-65
2023/10/17 04:32:33;;;;;;;2.37;1.90;;;7.70;99.90;;;7.80;76.37;100812.66;5006062;28;20643;-63
2023/10/17 04:35:02;;;;;;;1.60;1.50;;;7.70;99.90;;;7.83;76.41;100811.66;5006647;28;21117;-65
2023/10/17 04:37:32;;;;;;;1.83;1.73;;;7.70;99.90;;;7.81;76.55;100808.31;5008138;28;20649;-64
2023/10/17 04:45:28;;;;;;;1.90;1.70;;;7.70;99.90;;;7.72;76.93;100801.88;5009996;28;20641;-65
2023/10/17 04:48:11;;;;;;;2.87;1.80;;;7.60;99.90;;;7.69;76.90;100806.38;4997242;28;20681;-64
2023/10/17 04:50:55;;;;;;;2.03;1.83;;;7.60;99.90;;;7.69;76.65;100821.97;5006102;28;20633;-64
2023/10/17 04:53:35;;;;;;;3.13;1.63;;;7.60;99.90;;;7.70;77.11;100819.31;5007330;28;20795;-65
2023/10/17 04:56:11;;;;;;;1.40;1.30;;;7.60;99.90;;;7.68;76.75;100817.72;5005832;28;20645;-64
2023/10/17 05:01:41;;;;;;;1.83;1.73;;;7.60;99.90;;;7.72;76.78;100814.00;5006231;28;21213;-66
2023/10/17 06:18:26;;;;;;;3.73;2.03;;;7.50;99.90;;;7.60;77.13;100792.16;5010990;28;20670;-65
2023/10/17 06:21:54;;;;;;;2.27;2.07;;;7.50;99.90;;;7.64;76.96;100793.69;5009929;28;20637;-66
2023/10/17 06:34:38;;;;;;;2.10;2.00;;;7.70;99.90;;;7.78;76.18;100801.53;5025276;28;20638;-65
2023/10/17 06:37:09;;;;;;;2.07;1.83;;;7.70;99.90;;;7.81;76.04;100803.09;5012028;28;20630;-64
2023/10/17 06:39:45;;;;;;;3.10;2.00;;;7.80;99.90;;;7.87;75.79;100818.34;5005991;28;20758;-65
2023/10/17 06:42:30;;;;;;;2.30;2.07;;;7.80;99.90;;;7.90;76.36;100818.13;5006073;28;20642;-65
2023/10/17 06:45:07;;;;;;;2.37;2.17;;;7.80;99.90;;;7.94;75.27;100811.03;5004574;28;20637;-65
2023/10/17 06:47:41;;;;;;;2.63;1.90;;;7.80;99.90;;;8.01;74.94;100812.34;5009086;28;20656;-65
2023/10/17 06:55:39;;;;;;;2.30;1.80;;;8.00;99.90;;;8.21;74.57;100812.84;5022288;28;21206;-64
2023/10/17 06:58:09;;;;;;;3.10;2.60;;;8.10;99.90;;;8.27;74.43;100809.91;5010635;28;20629;-63
2023/10/17 07:00:53;;;;;;;2.80;1.60;;;8.20;99.90;;;8.33;74.11;100808.69;5008055;28;20648;-65
2023/10/17 07:03:28;;;;;;;2.83;1.80;;;8.20;99.90;;;8.37;74.36;100812.78;5007382;28;20728;-65
2023/10/17 07:06:11;;;;;;;2.23;2.13;;;8.30;99.90;;;8.40;73.47;100810.00;5009913;28;20679;-66
2023/10/17 07:08:41;;;;;;;2.50;2.30;;;8.30;99.90;;;8.46;73.87;100814.84;5009832;28;20672;-65
2023/10/17 07:11:26;;;;;;;2.53;2.30;;;8.30;99.90;;;8.49;74.26;100804.25;5006106;28;20628;-65
2023/10/17 07:24:43;;;;;;;4.00;2.73;;;8.60;99.90;;;8.76;72.46;100805.16;5010306;28;21220;-65
2023/10/17 07:27:11;;;;;;;2.00;1.90;;;8.70;99.90;;;8.86;72.39;100810.66;5024131;28;20632;-65
2023/10/17 07:29:45;;;;;;;2.40;2.07;;;8.70;99.90;;;8.90;71.92;100810.34;5011627;28;20707;-65
2023/10/17 07:32:16;;;;;;;2.27;2.07;;;8.80;99.90;;;8.93;71.42;100807.56;5009291;28;21231;-65
2023/10/17 07:34:44;;;;;;;1.57;1.47;;;8.80;99.90;;;8.99;71.34;100799.38;5010773;28;20994;-65
2023/10/17 07:37:22;;;;;;;1.80;1.73;;;8.90;99.90;;;9.08;71.05;100795.34;5008873;28;20703;-64
2023/10/17 07:40:17;;;;;;;2.10;1.30;;;8.90;99.90;;;9.16;70.59;100795.69;5009187;28;20653;-65
2023/10/17 07:42:45;;;;;;;2.00;1.90;;;9.00;99.90;;;9.23;70.35;100808.25;5010150;28;20699;-65
2023/10/17 07:45:22;;;;;;;3.30;2.10;;;9.10;99.90;;;9.31;69.63;100807.75;5008322;28;20637;-66
2023/10/17 07:47:53;;;;;;;2.50;2.30;;;9.20;99.90;;;9.43;69.48;100813.94;5009491;28;20748;-65
2023/10/17 07:50:25;;;;;;;4.33;2.90;;;9.30;99.90;;;9.50;68.86;100816.03;5000031;28;20637;-66
2023/10/17 07:52:54;;;;;;;5.03;2.90;;;9.40;99.90;;;9.51;68.63;100809.06;5002834;28;20708;-64
2023/10/17 07:55:36;;;;;;;2.20;1.73;;;9.40;99.90;;;9.56;69.01;100797.41;5022926;28;20691;-65
2023/10/17 07:58:06;;;;;;;3.43;2.57;;;9.40;99.90;;;9.57;68.69;100795.66;4987417;28;20645;-66
2023/10/17 08:00:34;;;;;;;4.00;2.13;;;9.50;99.90;;;9.65;68.56;100802.03;5023210;28;20637;-66
2023/10/17 08:03:14;;;;;;;2.47;2.20;;;9.50;99.90;;;9.70;67.97;100804.34;5015100;28;20641;-66
2023/10/17 08:05:45;;;;;;;2.90;2.27;;;9.60;99.90;;;9.77;68.22;100805.63;5015996;28;20676;-65
2023/10/17 08:08:20;;;;;;;2.50;2.30;;;9.60;99.90;;;9.78;67.59;100800.28;5002710;28;20679;-65
2023/10/17 08:10:47;;;;;;;2.13;2.00;;;9.70;99.90;;;9.83;67.06;100805.22;5008768;28;20639;-65
2023/10/17 08:13:15;;;;;;;2.47;2.27;;;9.70;99.90;;;9.78;66.67;100813.31;4999637;28;20638;-65
2023/10/17 08:15:53;;;;;;;2.60;2.27;;;9.70;99.90;;;9.79;66.96;100809.78;5007088;28;21039;-65
2023/10/17 08:18:28;;;;;;;3.83;2.23;;;9.70;99.90;;;9.83;67.39;100815.63;4994306;28;20735;-66
2023/10/17 08:23:29;;;;;;;2.10;2.00;;;9.70;99.90;;;9.97;67.04;100810.31;5019306;28;20682;-64
2023/10/17 08:25:59;;;;;;;1.60;1.60;;;9.80;99.90;;;9.98;66.43;100817.22;5007142;28;20667;-66
2023/10/17 08:42:05;;;;;;;2.83;2.60;;;10.20;99.90;;;10.43;66.40;100827.22;5006522;28;20661;-66
2023/10/17 08:44:38;;;;;;;3.57;2.30;;;10.20;99.90;;;10.41;66.01;100821.25;5005756;28;20649;-66
2023/10/17 08:47:07;;;;;;;2.50;2.33;;;10.30;99.90;;;10.43;65.88;100821.16;4992325;28;20997;-64
2023/10/17 08:49:34;;;;;;;1.87;1.77;;;10.30;99.90;;;10.48;66.65;100825.09;5004446;28;20700;-63
2023/10/17 08:52:03;;;;;;;2.80;2.10;;;10.30;99.90;;;10.47;65.91;100820.84;5006922;28;20633;-64
2023/10/17 08:54:32;;;;;;;2.20;2.00;;;10.30;99.90;;;10.48;66.02;100813.81;5007923;28;20688;-67
2023/10/17 08:57:02;;;;;;;6.73;2.20;;;10.30;99.90;;;10.53;66.93;100809.97;5008895;28;21182;-66
2023/10/17 09:02:29;;;;;;;1.73;1.63;;;10.40;99.90;;;10.62;66.38;100804.13;5008644;28;21210;-65
2023/10/17 09:05:13;;;;;;;2.00;1.80;;;10.50;99.90;;;10.71;67.63;100808.69;4998822;28;20737;-64
2023/10/17 09:07:46;;;;;;;2.67;2.00;;;10.50;99.90;;;10.79;66.36;100808.19;5021599;28;20643;-66
2023/10/17 09:10:38;;;;;;;1.43;1.33;;;10.60;99.90;;;10.91;65.81;100808.16;5007995;28;20684;-66
2023/10/17 09:15:57;;;;;;;19.13;3.17;;;10.80;99.90;;;11.06;64.62;100811.44;5009304;28;20610;-66
2023/10/17 09:18:28;;;;;;;3.00;1.47;;;10.90;99.90;;;11.16;64.64;100801.19;5005543;28;20811;-66
2023/10/17 09:20:57;;;;;;;2.53;1.70;;;11.00;99.90;;;11.20;63.86;100805.25;5005906;28;20732;-66
2023/10/17 09:23:28;;;;;;;1.10;1.10;;;11.10;99.90;;;11.23;63.93;100805.00;4995366;28;20665;-66
2023/10/17 09:26:01;;;;;;;2.20;1.70;;;11.00;99.90;;;11.15;63.72;100795.13;5002963;28;20638;-66
2023/10/17 09:28:28;;;;;;;1.90;1.80;;;11.00;99.90;;;11.11;63.41;100792.84;5007355;28;20677;-66
2023/10/17 09:31:08;;;;;;;1.93;1.40;;;11.00;99.90;;;11.08;64.55;100793.06;5006432;28;21073;-66
2023/10/17 09:33:45;;;;;;;2.80;2.60;;;10.90;99.90;;;11.14;64.37;100808.31;5007136;28;20989;-65
2023/10/17 09:36:18;;;;;;;7.80;2.93;;;11.00;99.90;;;11.23;63.69;100805.00;5007148;28;20755;-65
2023/10/17 09:38:47;;;;;;;1.60;1.50;;;11.00;99.90;;;11.36;63.30;100804.03;5008166;28;21224;-65
2023/10/17 09:41:17;;;;;;;0.73;0.67;;;11.10;99.90;;;11.49;63.56;100804.81;5004915;28;21171;-66
2023/10/17 09:43:51;;;;;;;2.13;1.53;;;11.30;99.90;;;11.57;64.01;100817.31;5022125;28;20641;-65
2023/10/17 09:46:25;;;;;;;2.77;2.50;;;11.30;99.90;;;11.65;63.61;100814.97;5007553;28;20633;-65
2023/10/17 09:48:53;;;;;;;4.17;3.00;;;11.40;99.90;;;11.73;63.03;100820.50;4999450;28;20680;-66
2023/10/17 09:51:24;;;;;;;1.97;1.77;;;11.50;99.90;;;11.86;62.77;100823.06;5006172;28;20641;-65
2023/10/17 09:53:53;;;;;;;0.40;0.40;;;11.70;99.90;;;11.90;61.72;100820.09;5006707;28;20687;-66
2023/10/17 09:56:31;;;;;;;2.13;1.97;;;11.70;99.90;;;11.98;61.45;100812.50;5002649;28;20645;-66
2023/10/17 09:59:05;;;;;;;1.00;1.00;;;11.80;99.90;;;11.98;61.13;100814.28;4999905;28;20645;-66
2023/10/17 10:01:35;;;;;;;2.30;2.10;;;11.80;99.90;;;12.00;61.15;100804.53;5005959;28;20653;-65
2023/10/17 10:04:03;;;;;;;2.77;2.53;;;11.80;99.90;;;12.03;60.85;100806.94;5008956;28;20626;-66
2023/10/17 10:06:36;;;;;;;2.70;2.13;;;11.80;99.90;;;12.00;60.69;100808.00;4998781;28;20648;-65
2023/10/17 10:09:13;;;;;;;2.53;1.93;;;11.80;99.90;;;12.01;60.69;100801.81;5007242;28;21081;-66
2023/10/17 10:11:49;;;;;;;1.67;1.60;;;11.80;99.90;;;12.03;60.91;100802.53;5006524;28;20732;-66
2023/10/17 10:14:33;;;;;;;3.90;2.13;;;11.90;99.90;;;12.05;61.03;100803.25;5001497;28;21196;-66
2023/10/17 10:17:04;;;;;;;3.47;2.40;;;11.90;99.90;;;12.07;60.46;100809.22;5004143;28;21047;-66
2023/10/17 10:19:40;;;;;;;3.20;1.70;;;11.90;99.90;;;12.13;60.42;100807.91;5003278;28;20657;-65
2023/10/17 10:22:10;;;;;;;1.50;1.40;;;11.90;99.90;;;12.08;60.11;100808.25;4996183;28;20647;-67
2023/10/17 10:24:39;;;;;;;2.10;1.90;;;11.90;99.90;;;12.06;60.30;100791.00;5008002;28;20647;-65
2023/10/17 10:27:27;;;;;;;5.77;2.73;;;11.90;99.90;;;12.11;60.85;100792.34;5009734;28;20633;-67
2023/10/17 10:30:27;;;;;;;3.90;2.90;;;11.90;99.90;;;12.13;60.16;100806.13;5022446;28;21254;-65
2023/10/17 10:32:54;;;;;;;6.00;3.67;;;11.90;99.90;;;12.16;59.99;100805.06;5001375;28;20711;-66
2023/10/17 10:35:21;;;;;;;5.70;2.90;;;12.00;99.90;;;12.20;59.79;100791.63;5007988;28;20631;-66
2023/10/17 10:37:57;;;;;;;3.83;2.27;;;12.00;99.90;;;12.18;59.84;100792.72;4995294;28;20723;-65
2023/10/17 10:40:24;;;;;;;5.90;3.20;;;12.00;99.90;;;12.18;59.28;100780.44;4995942;28;21002;-65
2023/10/17 10:43:01;;;;;;;4.43;3.00;;;12.00;99.90;;;12.24;59.47;100782.63;5011018;28;20637;-65
2023/10/17 10:45:50;;;;;;;28.90;13.73;;;12.00;99.90;;;12.28;59.12;100765.72;5007605;28;20668;-64
2023/10/17 10:48:21;;;;;;;2.70;2.50;;;12.10;99.90;;;12.33;59.26;100763.56;5006427;28;20685;-64
2023/10/17 10:50:55;;;;;;;3.00;2.80;;;12.10;99.90;;;12.35;58.89;100761.66;5005445;28;20629;-65
2023/10/17 10:53:28;;;;;;;1.97;1.67;;;12.10;99.90;;;12.31;57.92;100762.84;5006732;28;20990;-66
2023/10/17 10:56:01;;;;;;;2.30;2.20;;;12.10;99.90;;;12.31;58.67;100764.63;5011834;28;20719;-66
2023/10/17 10:58:31;;;;;;;4.50;3.50;;;12.10;99.90;;;12.34;58.56;100752.16;5012325;28;20702;-65
2023/10/17 11:01:02;;;;;;;4.40;3.10;;;12.20;99.90;;;12.38;58.56;100753.59;5007365;28;20664;-65
2023/10/17 11:03:33;;;;;;;1.37;1.27;;;12.20;99.90;;;12.44;58.63;100754.88;5007645;28;20622;-64
2023/10/17 11:06:03;;;;;;;2.20;1.93;;;12.20;99.90;;;12.48;58.87;100743.22;5012371;28;20633;-66
2023/10/17 11:08:41;;;;;;;2.80;2.07;;;12.30;99.90;;;12.54;58.32;100736.69;5010277;28;20661;-66
2023/10/17 11:11:14;;;;;;;3.67;2.17;;;12.30;99.90;;;12.58;58.12;100733.72;5011163;28;20636;-65
2023/10/17 11:13:48;;;;;;;2.47;1.93;;;12.30;99.90;;;12.58;57.57;100740.75;5011534;28;21144;-66
2023/10/17 11:16:17;;;;;;;1.10;1.00;;;12.40;99.90;;;12.60;56.74;100747.53;5008987;28;21057;-66
2023/10/17 11:18:45;;;;;;;1.33;1.07;;;12.40;99.90;;;12.55;57.05;100741.81;5011908;28;21333;-65
2023/10/17 11:21:15;;;;;;;0.70;0.70;;;12.40;99.90;;;12.45;56.62;100728.63;5006165;28;20629;-66
2023/10/17 11:23:50;;;;;;;1.07;0.97;;;12.30;99.90;;;12.40;56.62;100730.75;5008326;28;21015;-66
2023/10/17 11:26:21;;;;;;;1.20;1.10;;;12.20;99.90;;;12.34;56.26;100720.78;5012213;28;20802;-66
2023/10/17 11:28:56;;;;;;;5.47;2.90;;;12.20;99.90;;;12.36;56.94;100723.25;4990428;28;20668;-67
2023/10/17 11:31:25;;;;;;;1.93;1.80;;;12.10;99.90;;;12.37;57.99;100710.03;5009962;28;20634;-67
2023/10/17 11:33:59;;;;;;;0.40;0.40;;;12.20;99.90;;;12.45;58.12;100714.69;5009726;28;20648;-65
2023/10/17 11:36:35;;;;;;;1.07;0.97;;;12.20;99.90;;;12.49;58.40;100718.75;5009734;28;20736;-65
2023/10/17 11:39:05;;;;;;;2.23;1.80;;;12.20;99.90;;;12.60;58.08;100716.13;5004133;28;21023;-66
2023/10/17 11:41:39;;;;;;;0.90;0.63;;;12.30;99.90;;;12.68;58.67;100699.78;5009911;28;20644;-65
2023/10/17 11:44:09;;;;;;;0.70;0.40;;;12.40;99.90;;;12.73;56.10;100702.88;5008489;28;20637;-65
2023/10/17 11:46:38;;;;;;;4.13;0.60;;;12.50;99.90;;;12.75;55.74;100701.81;5010810;28;20695;-65
2023/10/17 11:49:27;;;;;;;0.43;0.43;;;12.60;99.90;;;12.85;54.93;100696.66;5011130;28;20731;-65
2023/10/17 11:52:01;;;;;;;0.60;0.60;;;12.60;99.90;;;12.98;56.25;100703.41;5010085;28;21202;-65
2023/10/17 11:54:29;;;;;;;2.43;2.07;;;12.70;99.90;;;13.05;55.55;100693.31;5026453;28;20629;-65
2023/10/17 11:57:14;;;;;;;1.40;1.30;;;12.80;99.90;;;13.22;55.26;100695.38;5019571;28;20717;-65
2023/10/17 12:02:48;;;;;;;0.73;0.73;;;13.10;99.90;;;13.30;54.31;100690.34;5010545;28;20644;-65
2023/10/17 12:05:21;;;;;;;3.17;1.33;;;13.00;99.90;;;13.31;54.35;100697.22;5010524;28;20637;-67
2023/10/17 12:07:57;;;;;;;1.33;1.23;;;13.10;99.90;;;13.36;54.64;100684.59;5024978;28;20627;-66
2023/10/17 12:10:24;;;;;;;4.00;1.73;;;13.10;99.90;;;13.41;54.85;100692.91;5008710;28;20660;-66
2023/10/17 12:12:58;;;;;;;0.70;0.70;;;13.10;99.90;;;13.43;54.64;100688.38;5010141;28;20621;-66
2023/10/17 12:15:26;;;;;;;1.17;1.00;;;13.20;99.90;;;13.41;54.66;100689.47;5025942;28;21109;-65
2023/10/17 12:17:53;;;;;;;1.37;1.37;;;13.20;99.90;;;13.34;55.21;100680.44;5011030;28;20625;-64
2023/10/17 12:20:25;;;;;;;9.50;5.60;;;13.10;99.90;;;13.26;54.19;100678.47;5010555;28;21206;-64
2023/10/17 12:22:57;;;;;;;2.17;1.97;;;13.10;99.90;;;13.21;54.54;100678.00;5003829;28;20653;-64
2023/10/17 12:25:24;;;;;;;0.50;0.50;;;13.00;99.90;;;13.14;54.94;100679.44;5008624;28;21001;-65
2023/10/17 12:27:58;;;;;;;12.33;11.43;;;13.00;99.90;;;13.13;54.55;100683.03;5003456;28;20621;-65
2023/10/17 12:30:32;;;;;;;10.17;9.40;;;12.90;99.90;;;13.14;55.16;100674.19;5010240;28;20704;-66
2023/10/17 12:33:00;;;;;;;5.23;5.03;;;12.90;99.90;;;13.17;55.20;100673.97;5010094;28;20716;-66
2023/10/17 12:35:27;;;;;;;12.73;11.77;;;12.90;99.90;;;13.24;55.50;100672.50;5011455;28;20621;-66
2023/10/17 12:37:59;;;;;;;46.47;32.47;;;13.00;99.90;;;13.33;54.88;100665.69;5010151;28;20621;-65
2023/10/17 12:40:26;;;;;;;22.23;19.93;;;13.00;99.90;;;13.41;54.89;100664.09;5011250;28;20637;-67
2023/10/17 12:42:55;;;;;;;26.50;23.80;;;13.10;99.90;;;13.51;54.94;100667.59;5011608;28;20652;-65
2023/10/17 12:45:24;;;;;;;2.30;2.20;;;13.20;99.90;;;13.50;53.95;100655.44;5010904;28;20673;-65
2023/10/17 12:47:51;;;;;;;70.47;42.07;;;13.30;99.80;;;13.56;54.33;100657.56;5009045;28;20624;-66
2023/10/17 12:50:18;;;;;;;46.37;32.00;;;13.30;99.80;;;13.63;54.54;100663.13;5008569;28;20673;-65
2023/10/17 12:52:46;;;;;;;24.03;19.97;;;13.40;99.90;;;13.63;54.36;100657.88;5010171;28;20683;-65
2023/10/17 12:55:13;;;;;;;3.60;2.10;;;13.40;99.70;;;13.63;54.21;100655.28;5010527;28;20645;-66
2023/10/17 12:57:40;;;;;;;1.60;1.40;;;13.40;99.60;;;13.63;54.65;100655.28;5010554;28;20636;-66
2023/10/17 13:00:09;;;;;;;2.27;2.07;;;13.40;99.90;;;13.62;55.21;100656.22;5009008;28;20653;-65